首页
METAR-TAF:

METAR-TAF

机场 :

哥倫比亞, 密蘇里州, 美国

纬度: 38-49-01N, 经度: 092-13-06W, 海拔: 271米

当前天气观测

该预报发布于45分钟前的13:54 UTC
风速12节,风向西北,有时为24节阵风
温度 -3°C
湿度 63%
气压 1023 hPa
能見度: 16.1公里
多云层高于6000英尺

METAR: KCOU 301354Z 32012G24KT 10SM BKN060 M03/M09 A3020 RMK AO2 SLP234 T10331089

时间: 08:39 (14:39 UTC)

预报

该预报发布于3小时和19分钟前的11:20 UTC
预报有效从30日的 12点(UTC)到 01日的 12点(UTC)
风速14节,风向北转西北,有时为23节阵风
能見度: 10公里
多云层高于4000英尺
从 30日的 1600点(UTC)
风速13节,风向北转西北,有时为20节阵风
能見度: 10公里
天空无云
从 30日的 2300点(UTC)
风速7节,风向西北
能見度: 10公里
天空无云

TAF: KCOU 301120Z 3012/0112 33014G23KT P6SM BKN040 FM301600 33013G20KT P6SM SKC FM302300 32007KT P6SM SKC

超过4000个机场的气象观测和天气预报(METAR&TAF报告)。

可查询的气象台以黄色和红色小点在地图上表示。

将鼠标移到小点上方,可查看气象台名称。

然后点击查看天气观测和预报。

如需切换地图:点击带黑十字的绿色按钮放大地图;点击带横线的绿色按钮缩小地图;或者点击绿色箭头查看邻近地区的地图。


METAR-TAF: